sensor_id;sensor_type;location;lat;lon;timestamp;P1;durP1;ratioP1;P2;durP2;ratioP2
25569;SDS011;17955;45.542;9.238;2022-07-06T00:00:05;8.90;;;5.30;;
25569;SDS011;17955;45.542;9.238;2022-07-06T00:02:35;12.35;;;4.45;;
25569;SDS011;17955;45.542;9.238;2022-07-06T00:05:02;9.50;;;5.40;;
25569;SDS011;17955;45.542;9.238;2022-07-06T00:07:29;7.28;;;4.03;;
25569;SDS011;17955;45.542;9.238;2022-07-06T00:09:56;10.73;;;4.38;;
25569;SDS011;17955;45.542;9.238;2022-07-06T00:12:23;8.63;;;3.30;;
25569;SDS011;17955;45.542;9.238;2022-07-06T00:14:52;7.28;;;3.42;;
25569;SDS011;17955;45.542;9.238;2022-07-06T00:17:19;6.38;;;2.80;;
25569;SDS011;17955;45.542;9.238;2022-07-06T00:19:46;8.93;;;3.08;;
25569;SDS011;17955;45.542;9.238;2022-07-06T00:22:13;15.52;;;4.43;;
25569;SDS011;17955;45.542;9.238;2022-07-06T00:24:40;7.38;;;2.30;;
25569;SDS011;17955;45.542;9.238;2022-07-06T00:27:07;6.68;;;2.97;;
25569;SDS011;17955;45.542;9.238;2022-07-06T00:29:34;9.85;;;2.67;;
25569;SDS011;17955;45.542;9.238;2022-07-06T00:32:02;9.75;;;2.40;;
25569;SDS011;17955;45.542;9.238;2022-07-06T00:34:29;5.90;;;2.95;;
25569;SDS011;17955;45.542;9.238;2022-07-06T00:36:56;9.27;;;2.92;;
25569;SDS011;17955;45.542;9.238;2022-07-06T00:39:23;7.57;;;2.60;;
25569;SDS011;17955;45.542;9.238;2022-07-06T00:41:54;5.35;;;2.30;;
25569;SDS011;17955;45.542;9.238;2022-07-06T00:44:21;7.22;;;2.60;;
25569;SDS011;17955;45.542;9.238;2022-07-06T00:46:48;10.50;;;2.70;;
25569;SDS011;17955;45.542;9.238;2022-07-06T00:49:16;10.63;;;2.30;;
25569;SDS011;17955;45.542;9.238;2022-07-06T00:51:58;7.97;;;2.75;;
25569;SDS011;17955;45.542;9.238;2022-07-06T00:54:25;5.10;;;2.22;;
25569;SDS011;17955;45.542;9.238;2022-07-06T00:56:54;4.85;;;2.33;;
25569;SDS011;17955;45.542;9.238;2022-07-06T00:59:21;5.97;;;2.28;;
25569;SDS011;17955;45.542;9.238;2022-07-06T01:01:49;5.50;;;2.22;;
25569;SDS011;17955;45.542;9.238;2022-07-06T01:04:18;7.28;;;2.42;;
25569;SDS011;17955;45.542;9.238;2022-07-06T01:06:45;6.57;;;2.70;;
25569;SDS011;17955;45.542;9.238;2022-07-06T01:09:14;11.32;;;3.15;;
25569;SDS011;17955;45.542;9.238;2022-07-06T01:11:42;6.40;;;2.80;;
25569;SDS011;17955;45.542;9.238;2022-07-06T01:14:10;5.25;;;2.65;;
25569;SDS011;17955;45.542;9.238;2022-07-06T01:16:38;8.13;;;2.30;;
25569;SDS011;17955;45.542;9.238;2022-07-06T01:19:05;8.10;;;3.00;;
25569;SDS011;17955;45.542;9.238;2022-07-06T01:21:33;7.03;;;2.35;;
25569;SDS011;17955;45.542;9.238;2022-07-06T01:24:03;5.40;;;2.22;;
25569;SDS011;17955;45.542;9.238;2022-07-06T01:26:31;7.43;;;2.00;;
25569;SDS011;17955;45.542;9.238;2022-07-06T01:28:58;6.43;;;1.80;;
25569;SDS011;17955;45.542;9.238;2022-07-06T01:31:25;7.30;;;1.80;;
25569;SDS011;17955;45.542;9.238;2022-07-06T01:33:54;4.50;;;2.00;;
25569;SDS011;17955;45.542;9.238;2022-07-06T01:36:22;6.55;;;1.77;;
25569;SDS011;17955;45.542;9.238;2022-07-06T01:38:52;7.80;;;1.98;;
25569;SDS011;17955;45.542;9.238;2022-07-06T01:41:20;8.35;;;2.40;;
25569;SDS011;17955;45.542;9.238;2022-07-06T01:43:53;5.90;;;1.85;;
25569;SDS011;17955;45.542;9.238;2022-07-06T01:46:23;4.05;;;1.77;;
25569;SDS011;17955;45.542;9.238;2022-07-06T01:49:07;4.18;;;2.00;;
25569;SDS011;17955;45.542;9.238;2022-07-06T01:51:34;7.38;;;2.13;;
25569;SDS011;17955;45.542;9.238;2022-07-06T01:54:02;7.57;;;1.65;;
25569;SDS011;17955;45.542;9.238;2022-07-06T01:56:30;7.95;;;1.63;;
25569;SDS011;17955;45.542;9.238;2022-07-06T01:59:01;5.35;;;1.70;;
25569;SDS011;17955;45.542;9.238;2022-07-06T02:01:28;6.93;;;1.95;;
25569;SDS011;17955;45.542;9.238;2022-07-06T02:03:55;4.05;;;1.63;;
25569;SDS011;17955;45.542;9.238;2022-07-06T02:06:22;4.53;;;1.70;;
25569;SDS011;17955;45.542;9.238;2022-07-06T02:08:48;4.32;;;1.73;;
25569;SDS011;17955;45.542;9.238;2022-07-06T02:11:18;3.30;;;1.70;;
25569;SDS011;17955;45.542;9.238;2022-07-06T02:13:45;4.50;;;1.85;;
25569;SDS011;17955;45.542;9.238;2022-07-06T02:16:12;9.80;;;1.80;;
25569;SDS011;17955;45.542;9.238;2022-07-06T02:18:39;6.45;;;1.75;;
25569;SDS011;17955;45.542;9.238;2022-07-06T02:21:06;8.90;;;1.92;;
25569;SDS011;17955;45.542;9.238;2022-07-06T02:23:34;6.07;;;1.65;;
25569;SDS011;17955;45.542;9.238;2022-07-06T02:26:01;5.68;;;1.73;;
25569;SDS011;17955;45.542;9.238;2022-07-06T02:28:30;7.57;;;1.73;;
25569;SDS011;17955;45.542;9.238;2022-07-06T02:30:57;3.65;;;1.75;;
25569;SDS011;17955;45.542;9.238;2022-07-06T02:33:26;2.70;;;1.50;;
25569;SDS011;17955;45.542;9.238;2022-07-06T02:35:53;5.70;;;1.90;;
25569;SDS011;17955;45.542;9.238;2022-07-06T02:38:20;7.70;;;1.65;;
25569;SDS011;17955;45.542;9.238;2022-07-06T02:40:47;9.38;;;2.10;;
25569;SDS011;17955;45.542;9.238;2022-07-06T02:43:14;9.85;;;2.15;;
25569;SDS011;17955;45.542;9.238;2022-07-06T02:45:43;3.17;;;1.73;;
25569;SDS011;17955;45.542;9.238;2022-07-06T02:48:10;6.78;;;1.73;;
25569;SDS011;17955;45.542;9.238;2022-07-06T02:50:38;7.40;;;2.22;;
25569;SDS011;17955;45.542;9.238;2022-07-06T02:53:05;13.55;;;2.10;;
25569;SDS011;17955;45.542;9.238;2022-07-06T02:55:32;4.95;;;1.48;;
25569;SDS011;17955;45.542;9.238;2022-07-06T02:57:59;7.07;;;1.90;;
25569;SDS011;17955;45.542;9.238;2022-07-06T03:00:26;8.00;;;2.10;;
25569;SDS011;17955;45.542;9.238;2022-07-06T03:02:55;6.10;;;2.15;;
25569;SDS011;17955;45.542;9.238;2022-07-06T03:05:22;6.65;;;1.80;;
25569;SDS011;17955;45.542;9.238;2022-07-06T03:07:50;6.53;;;1.70;;
25569;SDS011;17955;45.542;9.238;2022-07-06T03:10:17;8.25;;;2.10;;
25569;SDS011;17955;45.542;9.238;2022-07-06T03:12:44;6.05;;;1.80;;
25569;SDS011;17955;45.542;9.238;2022-07-06T03:15:11;4.72;;;2.10;;
25569;SDS011;17955;45.542;9.238;2022-07-06T03:17:42;9.57;;;1.98;;
25569;SDS011;17955;45.542;9.238;2022-07-06T03:20:11;5.60;;;2.40;;
25569;SDS011;17955;45.542;9.238;2022-07-06T03:22:39;5.63;;;1.92;;
25569;SDS011;17955;45.542;9.238;2022-07-06T03:25:08;5.75;;;2.03;;
25569;SDS011;17955;45.542;9.238;2022-07-06T03:27:38;4.05;;;2.15;;
25569;SDS011;17955;45.542;9.238;2022-07-06T03:30:05;5.88;;;2.72;;
25569;SDS011;17955;45.542;9.238;2022-07-06T03:32:33;6.32;;;2.55;;
25569;SDS011;17955;45.542;9.238;2022-07-06T03:35:03;6.13;;;1.95;;
25569;SDS011;17955;45.542;9.238;2022-07-06T03:37:33;10.27;;;2.50;;
25569;SDS011;17955;45.542;9.238;2022-07-06T03:40:00;5.65;;;2.28;;
25569;SDS011;17955;45.542;9.238;2022-07-06T03:42:28;5.15;;;3.08;;
25569;SDS011;17955;45.542;9.238;2022-07-06T03:44:55;5.68;;;2.63;;
25569;SDS011;17955;45.542;9.238;2022-07-06T03:47:22;7.85;;;2.78;;
25569;SDS011;17955;45.542;9.238;2022-07-06T03:49:49;13.25;;;3.17;;
25569;SDS011;17955;45.542;9.238;2022-07-06T03:52:17;6.50;;;2.92;;
25569;SDS011;17955;45.542;9.238;2022-07-06T03:54:51;4.65;;;2.65;;
25569;SDS011;17955;45.542;9.238;2022-07-06T03:57:22;7.50;;;2.58;;
25569;SDS011;17955;45.542;9.238;2022-07-06T03:59:51;4.15;;;2.63;;
25569;SDS011;17955;45.542;9.238;2022-07-06T04:02:19;3.95;;;2.40;;
25569;SDS011;17955;45.542;9.238;2022-07-06T04:04:48;6.07;;;2.65;;
25569;SDS011;17955;45.542;9.238;2022-07-06T04:07:16;7.70;;;2.50;;
25569;SDS011;17955;45.542;9.238;2022-07-06T04:09:43;5.65;;;2.53;;
25569;SDS011;17955;45.542;9.238;2022-07-06T04:12:12;4.75;;;2.20;;
25569;SDS011;17955;45.542;9.238;2022-07-06T04:14:39;8.73;;;2.40;;
25569;SDS011;17955;45.542;9.238;2022-07-06T04:17:06;3.95;;;2.47;;
25569;SDS011;17955;45.542;9.238;2022-07-06T04:19:47;5.82;;;1.83;;
25569;SDS011;17955;45.542;9.238;2022-07-06T04:22:14;4.57;;;2.10;;
25569;SDS011;17955;45.542;9.238;2022-07-06T04:24:41;8.68;;;2.00;;
25569;SDS011;17955;45.542;9.238;2022-07-06T04:27:08;4.60;;;2.08;;
25569;SDS011;17955;45.542;9.238;2022-07-06T04:29:38;5.65;;;1.95;;
25569;SDS011;17955;45.542;9.238;2022-07-06T04:32:05;4.40;;;2.25;;
25569;SDS011;17955;45.542;9.238;2022-07-06T04:34:32;5.93;;;2.05;;
25569;SDS011;17955;45.542;9.238;2022-07-06T04:37:00;5.72;;;2.20;;
25569;SDS011;17955;45.542;9.238;2022-07-06T04:39:27;6.75;;;1.77;;
25569;SDS011;17955;45.542;9.238;2022-07-06T04:41:56;4.43;;;2.15;;
25569;SDS011;17955;45.542;9.238;2022-07-06T04:44:23;6.13;;;1.90;;
25569;SDS011;17955;45.542;9.238;2022-07-06T04:46:51;3.85;;;1.80;;
25569;SDS011;17955;45.542;9.238;2022-07-06T04:49:19;4.00;;;1.52;;
25569;SDS011;17955;45.542;9.238;2022-07-06T04:51:46;6.28;;;3.72;;
25569;SDS011;17955;45.542;9.238;2022-07-06T04:54:13;14.02;;;3.03;;
25569;SDS011;17955;45.542;9.238;2022-07-06T04:56:40;9.32;;;2.97;;
25569;SDS011;17955;45.542;9.238;2022-07-06T04:59:08;8.00;;;2.00;;
25569;SDS011;17955;45.542;9.238;2022-07-06T05:01:35;9.07;;;1.92;;
25569;SDS011;17955;45.542;9.238;2022-07-06T05:04:03;7.70;;;1.80;;
25569;SDS011;17955;45.542;9.238;2022-07-06T05:06:30;9.88;;;2.30;;
25569;SDS011;17955;45.542;9.238;2022-07-06T05:08:59;4.45;;;1.88;;
25569;SDS011;17955;45.542;9.238;2022-07-06T05:11:28;4.22;;;1.58;;
25569;SDS011;17955;45.542;9.238;2022-07-06T05:13:55;4.68;;;1.70;;
25569;SDS011;17955;45.542;9.238;2022-07-06T05:16:22;10.55;;;1.75;;
25569;SDS011;17955;45.542;9.238;2022-07-06T05:18:49;4.60;;;1.75;;
25569;SDS011;17955;45.542;9.238;2022-07-06T05:21:17;6.38;;;1.67;;
25569;SDS011;17955;45.542;9.238;2022-07-06T05:23:44;8.68;;;1.98;;
25569;SDS011;17955;45.542;9.238;2022-07-06T05:26:11;7.82;;;1.67;;
25569;SDS011;17955;45.542;9.238;2022-07-06T05:28:38;8.50;;;2.13;;
25569;SDS011;17955;45.542;9.238;2022-07-06T05:31:10;7.82;;;1.63;;
25569;SDS011;17955;45.542;9.238;2022-07-06T05:33:37;5.72;;;1.80;;
25569;SDS011;17955;45.542;9.238;2022-07-06T05:36:04;8.02;;;2.20;;
25569;SDS011;17955;45.542;9.238;2022-07-06T05:38:32;6.00;;;1.77;;
25569;SDS011;17955;45.542;9.238;2022-07-06T05:41:00;8.82;;;1.98;;
25569;SDS011;17955;45.542;9.238;2022-07-06T05:43:27;4.32;;;1.50;;
25569;SDS011;17955;45.542;9.238;2022-07-06T05:45:57;11.63;;;2.20;;
25569;SDS011;17955;45.542;9.238;2022-07-06T05:48:27;4.47;;;1.70;;
25569;SDS011;17955;45.542;9.238;2022-07-06T05:51:12;11.00;;;1.88;;
25569;SDS011;17955;45.542;9.238;2022-07-06T05:53:42;9.23;;;2.00;;
25569;SDS011;17955;45.542;9.238;2022-07-06T05:56:09;9.27;;;2.80;;
25569;SDS011;17955;45.542;9.238;2022-07-06T05:58:38;4.57;;;1.90;;
25569;SDS011;17955;45.542;9.238;2022-07-06T06:01:05;10.00;;;2.53;;
25569;SDS011;17955;45.542;9.238;2022-07-06T06:03:34;8.80;;;1.80;;
25569;SDS011;17955;45.542;9.238;2022-07-06T06:06:02;7.05;;;1.88;;
25569;SDS011;17955;45.542;9.238;2022-07-06T06:08:30;11.13;;;2.30;;
25569;SDS011;17955;45.542;9.238;2022-07-06T06:10:58;5.65;;;1.95;;
25569;SDS011;17955;45.542;9.238;2022-07-06T06:13:27;12.00;;;2.05;;
25569;SDS011;17955;45.542;9.238;2022-07-06T06:15:54;3.70;;;2.20;;
25569;SDS011;17955;45.542;9.238;2022-07-06T06:18:22;7.40;;;2.10;;
25569;SDS011;17955;45.542;9.238;2022-07-06T06:20:49;6.47;;;1.63;;
25569;SDS011;17955;45.542;9.238;2022-07-06T06:23:16;4.05;;;1.75;;
25569;SDS011;17955;45.542;9.238;2022-07-06T06:25:43;7.32;;;2.10;;
25569;SDS011;17955;45.542;9.238;2022-07-06T06:28:11;6.63;;;2.22;;
25569;SDS011;17955;45.542;9.238;2022-07-06T06:30:39;11.32;;;3.33;;
25569;SDS011;17955;45.542;9.238;2022-07-06T06:33:10;7.97;;;1.83;;
25569;SDS011;17955;45.542;9.238;2022-07-06T06:35:38;5.57;;;1.83;;
25569;SDS011;17955;45.542;9.238;2022-07-06T06:38:08;6.47;;;2.10;;
25569;SDS011;17955;45.542;9.238;2022-07-06T06:40:35;4.85;;;1.75;;
25569;SDS011;17955;45.542;9.238;2022-07-06T06:43:02;11.50;;;1.77;;
25569;SDS011;17955;45.542;9.238;2022-07-06T06:45:32;6.57;;;1.77;;
25569;SDS011;17955;45.542;9.238;2022-07-06T06:47:59;7.85;;;2.00;;
25569;SDS011;17955;45.542;9.238;2022-07-06T06:50:26;9.10;;;1.92;;
25569;SDS011;17955;45.542;9.238;2022-07-06T06:52:54;13.27;;;1.65;;
25569;SDS011;17955;45.542;9.238;2022-07-06T06:55:21;10.23;;;1.75;;
25569;SDS011;17955;45.542;9.238;2022-07-06T06:57:48;5.75;;;1.52;;
25569;SDS011;17955;45.542;9.238;2022-07-06T07:00:15;7.15;;;1.60;;
25569;SDS011;17955;45.542;9.238;2022-07-06T07:02:44;8.48;;;2.47;;
25569;SDS011;17955;45.542;9.238;2022-07-06T07:05:12;7.03;;;1.80;;
25569;SDS011;17955;45.542;9.238;2022-07-06T07:07:39;6.05;;;1.83;;
25569;SDS011;17955;45.542;9.238;2022-07-06T07:10:06;3.72;;;1.80;;
25569;SDS011;17955;45.542;9.238;2022-07-06T07:12:33;9.50;;;2.78;;
25569;SDS011;17955;45.542;9.238;2022-07-06T07:15:01;7.45;;;2.10;;
25569;SDS011;17955;45.542;9.238;2022-07-06T07:17:28;6.13;;;1.70;;
25569;SDS011;17955;45.542;9.238;2022-07-06T07:19:56;6.63;;;1.75;;
25569;SDS011;17955;45.542;9.238;2022-07-06T07:22:23;5.93;;;1.58;;
25569;SDS011;17955;45.542;9.238;2022-07-06T07:24:50;7.07;;;2.13;;
25569;SDS011;17955;45.542;9.238;2022-07-06T07:27:17;10.07;;;2.25;;
25569;SDS011;17955;45.542;9.238;2022-07-06T07:29:44;8.35;;;1.80;;
25569;SDS011;17955;45.542;9.238;2022-07-06T07:32:11;6.97;;;2.38;;
25569;SDS011;17955;45.542;9.238;2022-07-06T07:34:38;5.78;;;1.88;;
25569;SDS011;17955;45.542;9.238;2022-07-06T07:37:07;12.23;;;1.70;;
25569;SDS011;17955;45.542;9.238;2022-07-06T07:39:34;7.13;;;2.05;;
25569;SDS011;17955;45.542;9.238;2022-07-06T07:42:00;6.30;;;2.30;;
25569;SDS011;17955;45.542;9.238;2022-07-06T07:44:28;3.60;;;1.77;;
25569;SDS011;17955;45.542;9.238;2022-07-06T07:46:55;7.07;;;2.22;;
25569;SDS011;17955;45.542;9.238;2022-07-06T07:49:22;9.00;;;2.38;;
25569;SDS011;17955;45.542;9.238;2022-07-06T07:51:49;7.20;;;2.30;;
25569;SDS011;17955;45.542;9.238;2022-07-06T07:54:17;8.15;;;2.17;;
25569;SDS011;17955;45.542;9.238;2022-07-06T07:56:44;8.48;;;2.40;;
25569;SDS011;17955;45.542;9.238;2022-07-06T07:59:11;7.20;;;2.08;;
25569;SDS011;17955;45.542;9.238;2022-07-06T08:01:40;6.28;;;1.83;;
25569;SDS011;17955;45.542;9.238;2022-07-06T08:04:06;9.38;;;2.15;;
25569;SDS011;17955;45.542;9.238;2022-07-06T08:06:33;5.90;;;2.10;;
25569;SDS011;17955;45.542;9.238;2022-07-06T08:09:00;3.95;;;2.10;;
25569;SDS011;17955;45.542;9.238;2022-07-06T08:11:31;4.25;;;2.00;;
25569;SDS011;17955;45.542;9.238;2022-07-06T08:13:58;6.72;;;1.85;;
25569;SDS011;17955;45.542;9.238;2022-07-06T08:16:25;7.45;;;2.08;;
25569;SDS011;17955;45.542;9.238;2022-07-06T08:18:52;11.05;;;2.00;;
25569;SDS011;17955;45.542;9.238;2022-07-06T08:21:19;6.90;;;1.88;;
25569;SDS011;17955;45.542;9.238;2022-07-06T08:23:46;7.32;;;1.83;;
25569;SDS011;17955;45.542;9.238;2022-07-06T08:26:13;7.57;;;1.70;;
25569;SDS011;17955;45.542;9.238;2022-07-06T08:28:41;7.63;;;2.10;;
25569;SDS011;17955;45.542;9.238;2022-07-06T08:31:08;5.22;;;1.70;;
25569;SDS011;17955;45.542;9.238;2022-07-06T08:33:35;6.53;;;1.77;;
25569;SDS011;17955;45.542;9.238;2022-07-06T08:36:02;8.55;;;2.05;;
25569;SDS011;17955;45.542;9.238;2022-07-06T08:38:29;7.00;;;2.00;;
25569;SDS011;17955;45.542;9.238;2022-07-06T08:40:56;4.03;;;1.40;;
25569;SDS011;17955;45.542;9.238;2022-07-06T08:43:24;2.85;;;1.40;;
25569;SDS011;17955;45.542;9.238;2022-07-06T08:45:53;8.02;;;1.88;;
25569;SDS011;17955;45.542;9.238;2022-07-06T08:48:22;5.32;;;1.70;;
25569;SDS011;17955;45.542;9.238;2022-07-06T08:50:50;9.75;;;1.73;;
25569;SDS011;17955;45.542;9.238;2022-07-06T08:53:18;9.45;;;1.50;;
25569;SDS011;17955;45.542;9.238;2022-07-06T08:55:46;3.95;;;1.30;;
25569;SDS011;17955;45.542;9.238;2022-07-06T08:58:15;7.68;;;1.85;;
25569;SDS011;17955;45.542;9.238;2022-07-06T09:00:42;3.65;;;1.65;;
25569;SDS011;17955;45.542;9.238;2022-07-06T09:03:13;2.67;;;1.33;;
25569;SDS011;17955;45.542;9.238;2022-07-06T09:05:41;5.78;;;1.40;;
25569;SDS011;17955;45.542;9.238;2022-07-06T09:08:12;6.72;;;1.90;;
25569;SDS011;17955;45.542;9.238;2022-07-06T09:10:39;9.00;;;1.85;;
25569;SDS011;17955;45.542;9.238;2022-07-06T09:13:07;8.57;;;1.75;;
25569;SDS011;17955;45.542;9.238;2022-07-06T09:15:36;6.72;;;1.55;;
25569;SDS011;17955;45.542;9.238;2022-07-06T09:18:04;5.22;;;1.88;;
25569;SDS011;17955;45.542;9.238;2022-07-06T09:20:33;6.85;;;1.50;;
25569;SDS011;17955;45.542;9.238;2022-07-06T09:23:01;10.75;;;2.00;;
25569;SDS011;17955;45.542;9.238;2022-07-06T09:25:30;7.38;;;1.58;;
25569;SDS011;17955;45.542;9.238;2022-07-06T09:27:58;6.57;;;1.70;;
25569;SDS011;17955;45.542;9.238;2022-07-06T09:30:27;8.25;;;1.30;;
25569;SDS011;17955;45.542;9.238;2022-07-06T09:32:55;5.03;;;1.52;;
25569;SDS011;17955;45.542;9.238;2022-07-06T09:35:24;15.50;;;2.85;;
25569;SDS011;17955;45.542;9.238;2022-07-06T09:38:01;10.50;;;2.25;;
25569;SDS011;17955;45.542;9.238;2022-07-06T09:40:33;4.78;;;1.98;;
25569;SDS011;17955;45.542;9.238;2022-07-06T09:43:11;9.68;;;1.75;;
25569;SDS011;17955;45.542;9.238;2022-07-06T09:45:40;6.75;;;1.38;;
25569;SDS011;17955;45.542;9.238;2022-07-06T09:48:08;11.43;;;1.75;;
25569;SDS011;17955;45.542;9.238;2022-07-06T09:50:40;4.13;;;1.90;;
25569;SDS011;17955;45.542;9.238;2022-07-06T09:53:10;14.45;;;1.80;;
25569;SDS011;17955;45.542;9.238;2022-07-06T09:55:37;5.20;;;1.40;;
25569;SDS011;17955;45.542;9.238;2022-07-06T09:58:05;6.85;;;1.40;;
25569;SDS011;17955;45.542;9.238;2022-07-06T10:00:32;17.08;;;1.50;;
25569;SDS011;17955;45.542;9.238;2022-07-06T10:02:59;11.30;;;1.55;;
25569;SDS011;17955;45.542;9.238;2022-07-06T10:05:26;5.90;;;1.25;;
25569;SDS011;17955;45.542;9.238;2022-07-06T10:07:56;3.90;;;1.30;;
25569;SDS011;17955;45.542;9.238;2022-07-06T10:10:27;6.30;;;1.38;;
25569;SDS011;17955;45.542;9.238;2022-07-06T10:12:56;2.63;;;1.40;;
25569;SDS011;17955;45.542;9.238;2022-07-06T10:15:24;5.47;;;1.20;;
25569;SDS011;17955;45.542;9.238;2022-07-06T10:17:52;2.92;;;1.25;;
25569;SDS011;17955;45.542;9.238;2022-07-06T10:20:20;2.45;;;1.42;;
25569;SDS011;17955;45.542;9.238;2022-07-06T10:22:48;5.18;;;1.80;;
25569;SDS011;17955;45.542;9.238;2022-07-06T10:25:17;2.50;;;1.48;;
25569;SDS011;17955;45.542;9.238;2022-07-06T10:27:47;2.88;;;1.30;;
25569;SDS011;17955;45.542;9.238;2022-07-06T10:30:15;4.55;;;1.70;;
25569;SDS011;17955;45.542;9.238;2022-07-06T10:32:43;6.03;;;1.55;;
25569;SDS011;17955;45.542;9.238;2022-07-06T10:35:13;4.40;;;2.05;;
25569;SDS011;17955;45.542;9.238;2022-07-06T10:37:40;6.80;;;1.70;;
25569;SDS011;17955;45.542;9.238;2022-07-06T10:40:15;10.57;;;1.60;;
25569;SDS011;17955;45.542;9.238;2022-07-06T10:43:01;3.60;;;1.42;;
25569;SDS011;17955;45.542;9.238;2022-07-06T10:48:21;4.68;;;1.40;;
25569;SDS011;17955;45.542;9.238;2022-07-06T10:50:49;10.27;;;1.83;;
25569;SDS011;17955;45.542;9.238;2022-07-06T10:53:17;3.72;;;1.40;;
25569;SDS011;17955;45.542;9.238;2022-07-06T10:55:49;5.38;;;1.55;;
25569;SDS011;17955;45.542;9.238;2022-07-06T11:01:02;4.53;;;1.35;;
25569;SDS011;17955;45.542;9.238;2022-07-06T11:03:32;3.25;;;1.52;;
25569;SDS011;17955;45.542;9.238;2022-07-06T11:08:50;26.58;;;2.95;;
25569;SDS011;17955;45.542;9.238;2022-07-06T11:11:20;8.88;;;1.92;;
25569;SDS011;17955;45.542;9.238;2022-07-06T11:13:50;8.02;;;1.50;;
25569;SDS011;17955;45.542;9.238;2022-07-06T11:16:27;3.50;;;1.33;;
25569;SDS011;17955;45.542;9.238;2022-07-06T11:19:08;3.78;;;1.13;;
25569;SDS011;17955;45.542;9.238;2022-07-06T11:21:37;6.10;;;1.75;;
25569;SDS011;17955;45.542;9.238;2022-07-06T11:24:07;4.78;;;1.60;;
25569;SDS011;17955;45.542;9.238;2022-07-06T11:26:35;4.35;;;1.48;;
25569;SDS011;17955;45.542;9.238;2022-07-06T11:29:05;8.02;;;1.70;;
25569;SDS011;17955;45.542;9.238;2022-07-06T11:31:33;3.47;;;1.48;;
25569;SDS011;17955;45.542;9.238;2022-07-06T11:34:02;3.75;;;1.30;;
25569;SDS011;17955;45.542;9.238;2022-07-06T11:36:29;9.43;;;1.83;;
25569;SDS011;17955;45.542;9.238;2022-07-06T11:38:56;4.55;;;1.55;;
25569;SDS011;17955;45.542;9.238;2022-07-06T11:41:23;7.28;;;1.70;;
25569;SDS011;17955;45.542;9.238;2022-07-06T11:43:50;5.20;;;1.80;;
25569;SDS011;17955;45.542;9.238;2022-07-06T11:46:22;6.03;;;1.50;;
25569;SDS011;17955;45.542;9.238;2022-07-06T11:48:52;6.28;;;1.60;;
25569;SDS011;17955;45.542;9.238;2022-07-06T11:51:21;3.00;;;1.42;;
25569;SDS011;17955;45.542;9.238;2022-07-06T11:53:49;2.63;;;1.33;;
25569;SDS011;17955;45.542;9.238;2022-07-06T11:56:17;5.05;;;1.42;;
25569;SDS011;17955;45.542;9.238;2022-07-06T11:58:46;5.65;;;1.52;;
25569;SDS011;17955;45.542;9.238;2022-07-06T12:01:15;2.55;;;1.33;;
25569;SDS011;17955;45.542;9.238;2022-07-06T12:03:44;3.17;;;1.35;;
25569;SDS011;17955;45.542;9.238;2022-07-06T12:06:12;7.53;;;2.25;;
25569;SDS011;17955;45.542;9.238;2022-07-06T12:08:42;5.03;;;1.67;;
25569;SDS011;17955;45.542;9.238;2022-07-06T12:11:10;5.57;;;1.63;;
25569;SDS011;17955;45.542;9.238;2022-07-06T12:13:42;3.60;;;1.23;;
25569;SDS011;17955;45.542;9.238;2022-07-06T12:16:10;6.28;;;1.65;;
25569;SDS011;17955;45.542;9.238;2022-07-06T12:18:37;12.93;;;2.38;;
25569;SDS011;17955;45.542;9.238;2022-07-06T12:21:08;4.25;;;1.48;;
25569;SDS011;17955;45.542;9.238;2022-07-06T12:23:43;7.40;;;1.92;;
25569;SDS011;17955;45.542;9.238;2022-07-06T12:26:12;3.88;;;1.38;;
25569;SDS011;17955;45.542;9.238;2022-07-06T12:28:40;5.45;;;1.15;;
25569;SDS011;17955;45.542;9.238;2022-07-06T12:31:07;2.60;;;1.13;;
25569;SDS011;17955;45.542;9.238;2022-07-06T12:33:34;3.03;;;1.30;;
25569;SDS011;17955;45.542;9.238;2022-07-06T12:36:13;6.60;;;1.70;;
25569;SDS011;17955;45.542;9.238;2022-07-06T12:38:44;8.23;;;1.95;;
25569;SDS011;17955;45.542;9.238;2022-07-06T12:41:29;16.95;;;2.53;;
25569;SDS011;17955;45.542;9.238;2022-07-06T12:44:03;6.60;;;1.73;;
25569;SDS011;17955;45.542;9.238;2022-07-06T12:46:32;13.57;;;1.67;;
25569;SDS011;17955;45.542;9.238;2022-07-06T12:49:01;3.28;;;1.38;;
25569;SDS011;17955;45.542;9.238;2022-07-06T12:51:40;6.60;;;1.40;;
25569;SDS011;17955;45.542;9.238;2022-07-06T12:54:25;4.65;;;1.77;;
25569;SDS011;17955;45.542;9.238;2022-07-06T12:57:05;6.50;;;1.52;;
25569;SDS011;17955;45.542;9.238;2022-07-06T12:59:38;6.22;;;1.67;;
25569;SDS011;17955;45.542;9.238;2022-07-06T13:02:07;2.78;;;1.55;;
25569;SDS011;17955;45.542;9.238;2022-07-06T13:04:36;3.25;;;1.45;;
25569;SDS011;17955;45.542;9.238;2022-07-06T13:07:05;3.05;;;1.40;;
25569;SDS011;17955;45.542;9.238;2022-07-06T13:09:32;3.08;;;1.30;;
25569;SDS011;17955;45.542;9.238;2022-07-06T13:11:59;7.05;;;1.30;;
25569;SDS011;17955;45.542;9.238;2022-07-06T13:14:26;6.75;;;1.50;;
25569;SDS011;17955;45.542;9.238;2022-07-06T13:16:53;1.80;;;0.98;;
25569;SDS011;17955;45.542;9.238;2022-07-06T13:19:20;3.63;;;1.30;;
25569;SDS011;17955;45.542;9.238;2022-07-06T13:21:47;10.95;;;2.00;;
25569;SDS011;17955;45.542;9.238;2022-07-06T13:24:16;9.13;;;2.00;;
25569;SDS011;17955;45.542;9.238;2022-07-06T13:26:43;11.88;;;2.17;;
25569;SDS011;17955;45.542;9.238;2022-07-06T13:29:11;8.23;;;1.70;;
25569;SDS011;17955;45.542;9.238;2022-07-06T13:31:39;9.15;;;2.30;;
25569;SDS011;17955;45.542;9.238;2022-07-06T13:34:07;13.98;;;1.67;;
25569;SDS011;17955;45.542;9.238;2022-07-06T13:36:34;17.63;;;2.30;;
25569;SDS011;17955;45.542;9.238;2022-07-06T13:39:02;4.60;;;1.35;;
25569;SDS011;17955;45.542;9.238;2022-07-06T13:41:31;13.07;;;2.13;;
25569;SDS011;17955;45.542;9.238;2022-07-06T13:43:59;3.03;;;1.38;;
25569;SDS011;17955;45.542;9.238;2022-07-06T13:46:26;6.60;;;1.65;;
25569;SDS011;17955;45.542;9.238;2022-07-06T13:48:54;3.40;;;1.33;;
25569;SDS011;17955;45.542;9.238;2022-07-06T13:51:22;3.58;;;1.40;;
25569;SDS011;17955;45.542;9.238;2022-07-06T13:53:50;10.02;;;1.50;;
25569;SDS011;17955;45.542;9.238;2022-07-06T13:56:17;9.75;;;1.60;;
25569;SDS011;17955;45.542;9.238;2022-07-06T13:58:45;5.85;;;1.38;;
25569;SDS011;17955;45.542;9.238;2022-07-06T14:01:12;5.82;;;1.38;;
25569;SDS011;17955;45.542;9.238;2022-07-06T14:03:40;5.65;;;1.63;;
25569;SDS011;17955;45.542;9.238;2022-07-06T14:06:07;7.90;;;1.83;;
25569;SDS011;17955;45.542;9.238;2022-07-06T14:08:35;13.35;;;1.65;;
25569;SDS011;17955;45.542;9.238;2022-07-06T14:11:02;6.15;;;1.40;;
25569;SDS011;17955;45.542;9.238;2022-07-06T14:13:30;6.53;;;1.30;;
25569;SDS011;17955;45.542;9.238;2022-07-06T14:15:59;6.53;;;1.50;;
25569;SDS011;17955;45.542;9.238;2022-07-06T14:18:26;4.72;;;1.30;;
25569;SDS011;17955;45.542;9.238;2022-07-06T14:20:53;5.50;;;1.40;;
25569;SDS011;17955;45.542;9.238;2022-07-06T14:23:21;4.18;;;1.42;;
25569;SDS011;17955;45.542;9.238;2022-07-06T14:25:48;10.38;;;1.70;;
25569;SDS011;17955;45.542;9.238;2022-07-06T14:28:16;11.00;;;1.95;;
25569;SDS011;17955;45.542;9.238;2022-07-06T14:30:44;4.85;;;1.30;;
25569;SDS011;17955;45.542;9.238;2022-07-06T14:33:13;6.32;;;1.63;;
25569;SDS011;17955;45.542;9.238;2022-07-06T14:35:42;11.90;;;2.22;;
25569;SDS011;17955;45.542;9.238;2022-07-06T14:38:13;2.47;;;1.20;;
25569;SDS011;17955;45.542;9.238;2022-07-06T14:40:40;6.03;;;1.33;;
25569;SDS011;17955;45.542;9.238;2022-07-06T14:43:07;4.88;;;1.50;;
25569;SDS011;17955;45.542;9.238;2022-07-06T14:45:35;4.78;;;1.30;;
25569;SDS011;17955;45.542;9.238;2022-07-06T14:48:02;11.52;;;2.17;;
25569;SDS011;17955;45.542;9.238;2022-07-06T14:50:32;5.05;;;1.50;;
25569;SDS011;17955;45.542;9.238;2022-07-06T14:53:00;6.97;;;1.25;;
25569;SDS011;17955;45.542;9.238;2022-07-06T14:55:27;14.95;;;2.25;;
25569;SDS011;17955;45.542;9.238;2022-07-06T14:57:54;10.60;;;2.15;;
25569;SDS011;17955;45.542;9.238;2022-07-06T15:00:21;4.57;;;1.20;;